Time;durP1;ratioP1;P1;durP2;ratioP2;P2;SDS_P1;SDS_P2;PMS_P1;PMS_P2;Temp;Humidity;BMP_temperature;BMP_pressure;BME280_temperature;BME280_humidity;BME280_pressure;Samples;Min_cycle;Max_cycle;Signal;HPM_P1;HPM_P2
2022/09/14 00:01:43;;;;;;;6.95;3.50;;;21.00;99.90;;;21.39;61.40;100776.25;5116009;28;20043;-77
2022/09/14 00:04:15;;;;;;;7.20;3.60;;;21.00;99.90;;;21.43;61.86;100787.72;5115851;28;20084;-76
2022/09/14 00:06:44;;;;;;;7.47;3.63;;;21.00;99.90;;;21.41;61.98;100784.22;5115983;28;20052;-76
2022/09/14 00:09:17;;;;;;;9.65;3.70;;;21.00;99.90;;;21.47;61.82;100789.31;5115636;28;20040;-75
2022/09/14 00:11:46;;;;;;;6.88;3.45;;;21.00;99.90;;;21.44;61.66;100784.97;5116130;28;20070;-76
2022/09/14 00:14:17;;;;;;;7.90;4.07;;;20.90;99.90;;;21.44;61.53;100776.91;5116259;28;20043;-76
2022/09/14 00:16:46;;;;;;;7.68;3.58;;;21.00;99.90;;;21.37;61.86;100783.53;5115954;28;20035;-76
2022/09/14 00:19:18;;;;;;;5.93;3.20;;;20.90;99.90;;;21.33;62.05;100783.78;5114944;28;20051;-76
2022/09/14 00:21:51;;;;;;;4.93;3.30;;;20.80;99.90;;;21.30;62.20;100765.94;5115955;28;20039;-76
2022/09/14 00:24:21;;;;;;;7.22;3.63;;;20.80;99.90;;;21.42;62.10;100778.78;5116282;28;20046;-76
2022/09/14 00:26:50;;;;;;;8.68;3.97;;;20.90;99.90;;;21.39;62.15;100775.34;5115677;28;20039;-76
2022/09/14 00:29:20;;;;;;;6.65;3.67;;;20.90;99.90;;;21.39;62.11;100778.94;5114476;28;20051;-76
2022/09/14 00:31:48;;;;;;;7.28;3.40;;;20.90;99.90;;;21.41;62.02;100781.53;5115703;28;20386;-76
2022/09/14 00:34:18;;;;;;;5.85;3.38;;;20.90;99.90;;;21.37;61.98;100774.56;5115743;28;20080;-76
2022/09/14 00:36:48;;;;;;;5.30;3.55;;;20.90;99.90;;;21.34;61.99;100772.03;5115721;28;20040;-76
2022/09/14 00:39:20;;;;;;;8.60;3.80;;;20.90;99.90;;;21.26;62.06;100756.28;5115528;28;20058;-76
2022/09/14 00:41:49;;;;;;;5.70;3.13;;;20.80;99.90;;;21.32;62.37;100769.44;5115310;28;20054;-75
2022/09/14 00:45:03;;;;;;;4.70;2.95;;;20.80;99.90;;;21.27;62.37;100765.25;5115322;28;20084;-76
2022/09/14 00:47:32;;;;;;;7.45;3.58;;;20.80;99.90;;;21.30;61.95;100749.81;5115361;28;20044;-77
2022/09/14 00:50:03;;;;;;;7.30;3.42;;;20.80;99.90;;;21.23;62.06;100742.13;5115216;28;20467;-75
2022/09/14 00:52:35;;;;;;;8.90;3.70;;;20.80;99.90;;;21.27;62.27;100743.72;5115167;28;20055;-75
2022/09/14 00:55:08;;;;;;;6.03;4.07;;;20.70;99.90;;;21.27;62.17;100732.94;5115735;28;20109;-76
2022/09/14 00:57:41;;;;;;;6.50;3.83;;;20.80;99.90;;;21.26;62.32;100729.38;5113983;28;20555;-75
2022/09/14 01:00:15;;;;;;;7.88;4.10;;;20.80;99.90;;;21.17;62.17;100728.97;5114941;28;20050;-75
2022/09/14 01:02:45;;;;;;;7.55;4.00;;;20.70;99.90;;;21.18;62.58;100722.63;5114766;28;20481;-76
2022/09/14 01:05:14;;;;;;;7.45;3.70;;;20.70;99.90;;;21.17;62.66;100724.47;5114768;28;20092;-75
2022/09/14 01:08:28;;;;;;;6.88;3.83;;;20.70;99.90;;;21.18;62.62;100725.31;5115234;28;20062;-75
2022/09/14 01:11:16;;;;;;;9.07;3.65;;;20.70;99.90;;;21.13;62.45;100713.94;5113989;28;20055;-76
2022/09/14 01:13:56;;;;;;;5.25;3.50;;;20.70;99.90;;;21.13;62.41;100712.13;5115173;28;20495;-75
2022/09/14 01:16:34;;;;;;;7.47;3.45;;;20.70;99.90;;;21.12;62.17;100709.47;5114904;28;20054;-76
2022/09/14 01:19:07;;;;;;;11.10;3.65;;;20.60;99.90;;;21.20;62.25;100704.59;5115192;28;20054;-75
2022/09/14 01:21:38;;;;;;;9.20;3.67;;;20.70;99.90;;;21.17;62.57;100707.44;5114514;28;20442;-75
2022/09/14 01:24:16;;;;;;;8.90;3.35;;;20.70;99.90;;;21.17;62.65;100694.88;5114323;28;20052;-76
2022/09/14 01:27:21;;;;;;;7.10;3.30;;;20.70;99.90;;;21.20;62.51;100699.19;5114625;28;20044;-75
2022/09/14 01:29:58;;;;;;;7.40;3.47;;;20.70;99.90;;;21.15;62.93;100696.75;5110018;28;20488;-75
2022/09/14 01:32:31;;;;;;;9.18;3.90;;;20.70;99.90;;;21.15;62.80;100695.88;5114950;28;20052;-76
2022/09/14 01:35:06;;;;;;;8.93;3.45;;;20.70;99.90;;;21.17;62.29;100704.75;5114100;28;20046;-75
2022/09/14 01:37:42;;;;;;;7.57;3.63;;;20.70;99.90;;;21.14;62.45;100694.13;5114057;28;20054;-75
2022/09/14 01:40:17;;;;;;;6.63;3.30;;;20.70;99.90;;;21.15;62.35;100695.88;5114135;28;20481;-76
2022/09/14 01:42:52;;;;;;;4.47;3.58;;;20.60;99.90;;;21.19;62.32;100697.47;5114451;28;20067;-75
2022/09/14 01:45:22;;;;;;;5.65;3.45;;;20.70;99.90;;;21.15;62.20;100685.13;5114200;28;20046;-75
2022/09/14 01:47:53;;;;;;;;;;;20.70;99.90;;;21.16;62.70;100685.03;5114368;28;20040;-75
2022/09/14 01:50:30;;;;;;;6.78;3.55;;;20.80;99.90;;;21.13;62.78;100687.91;5114381;28;19920;-75
2022/09/14 01:53:05;;;;;;;6.80;3.58;;;20.70;99.90;;;21.10;62.70;100685.34;5113930;28;20047;-75
2022/09/14 01:55:41;;;;;;;8.68;3.35;;;20.70;99.90;;;21.13;62.76;100677.13;5114014;28;20053;-76
2022/09/14 01:58:16;;;;;;;6.25;3.17;;;20.70;99.90;;;21.12;63.17;100678.06;5113809;28;20118;-74
2022/09/14 02:00:46;;;;;;;8.52;3.80;;;20.70;99.90;;;21.14;62.99;100678.00;5113692;28;20046;-75
2022/09/14 02:03:19;;;;;;;6.93;3.25;;;20.70;99.90;;;21.12;63.06;100661.94;5113542;28;20252;-75
2022/09/14 02:05:56;;;;;;;5.53;2.97;;;20.70;99.90;;;21.13;63.10;100665.50;5113648;28;20035;-76
2022/09/14 02:08:28;;;;;;;8.30;3.50;;;20.70;99.90;;;21.06;63.34;100666.78;5113481;28;20039;-75
2022/09/14 02:10:57;;;;;;;6.22;3.20;;;20.60;99.90;;;21.04;63.73;100660.59;5113748;28;20040;-76
2022/09/14 02:13:27;;;;;;;7.40;3.30;;;20.60;99.90;;;21.03;64.14;100658.84;5113360;28;20048;-75
2022/09/14 02:15:56;;;;;;;;;;;20.50;99.90;;;20.95;64.16;100652.94;5114059;28;20078;-74
2022/09/14 02:18:24;;;;;;;7.35;3.15;;;20.60;99.90;;;21.01;64.12;100660.72;5113774;28;19927;-75
2022/09/14 02:20:57;;;;;;;7.68;3.72;;;20.50;99.90;;;21.01;64.23;100666.13;5112955;28;20059;-75
2022/09/14 02:23:26;;;;;;;10.57;3.25;;;20.50;99.90;;;21.05;63.98;100662.31;5113194;28;20079;-75
2022/09/14 02:25:55;;;;;;;8.95;3.83;;;20.60;99.90;;;21.04;64.01;100660.59;5113190;28;20100;-75
2022/09/14 02:28:24;;;;;;;7.10;3.47;;;20.60;99.90;;;21.02;63.90;100652.59;5113441;28;20115;-75
2022/09/14 02:31:08;;;;;;;10.57;4.13;;;20.60;99.90;;;21.00;63.81;100649.06;5113411;28;20084;-75
2022/09/14 02:33:47;;;;;;;7.85;3.40;;;20.60;99.90;;;21.01;63.87;100641.91;5113058;28;20154;-75
2022/09/14 02:36:24;;;;;;;5.93;3.85;;;20.60;99.90;;;21.01;64.01;100640.09;5112953;28;20043;-75
2022/09/14 02:39:01;;;;;;;7.35;3.40;;;20.60;99.90;;;20.91;64.13;100633.41;5113022;28;20048;-76
2022/09/14 02:41:45;;;;;;;9.48;3.65;;;20.50;99.90;;;20.91;64.42;100635.22;5113297;28;20054;-75
2022/09/14 02:44:31;;;;;;;5.28;3.17;;;20.50;99.90;;;20.93;64.44;100636.00;5113207;28;20040;-75
2022/09/14 02:47:06;;;;;;;8.52;3.60;;;20.50;99.90;;;20.92;64.52;100634.28;5113405;28;20058;-75
2022/09/14 02:49:44;;;;;;;10.65;4.05;;;20.50;99.90;;;20.88;64.67;100638.06;5111939;28;20498;-76
2022/09/14 02:52:18;;;;;;;7.00;4.00;;;20.50;99.90;;;20.89;64.46;100635.28;5113423;28;20039;-75
2022/09/14 02:54:56;;;;;;;7.65;3.50;;;20.40;99.90;;;20.87;64.78;100631.81;5113235;28;20050;-75
2022/09/14 02:57:25;;;;;;;6.53;3.17;;;20.40;99.90;;;20.81;64.67;100628.59;5113560;28;20050;-75
2022/09/14 02:59:54;;;;;;;5.55;2.92;;;20.40;99.90;;;20.79;64.93;100628.63;5113152;28;20481;-76
2022/09/14 03:02:23;;;;;;;6.75;3.70;;;20.40;99.90;;;20.73;65.07;100622.72;5113099;28;20114;-75
2022/09/14 03:04:52;;;;;;;5.55;3.42;;;20.30;99.90;;;20.73;65.14;100614.66;5112942;28;20067;-75
2022/09/14 03:07:20;;;;;;;7.40;3.22;;;20.30;99.90;;;20.81;64.86;100604.38;5113135;28;20110;-75
2022/09/14 03:09:49;;;;;;;8.00;3.63;;;20.30;99.90;;;20.85;64.63;100606.81;5113085;28;20051;-76
2022/09/14 03:12:17;;;;;;;8.00;3.60;;;20.40;99.90;;;20.87;64.50;100604.03;5113380;28;20040;-75
2022/09/14 03:14:45;;;;;;;5.22;3.40;;;20.40;99.90;;;20.81;64.40;100589.09;5113423;28;20052;-75
2022/09/14 03:17:13;;;;;;;8.57;3.13;;;20.40;99.90;;;20.91;64.34;100595.75;5113133;28;20042;-75
2022/09/14 03:19:43;;;;;;;7.40;3.15;;;20.40;99.90;;;20.94;64.26;100589.34;5112762;28;20476;-75
2022/09/14 03:22:11;;;;;;;6.65;3.40;;;20.40;99.90;;;20.90;64.11;100599.41;5112999;28;20104;-75
2022/09/14 03:24:39;;;;;;;8.07;3.20;;;20.40;99.90;;;20.88;64.40;100595.03;5111716;28;20052;-75
2022/09/14 03:27:07;;;;;;;5.45;3.15;;;20.40;99.90;;;20.89;64.29;100597.66;5113207;28;20084;-75
2022/09/14 03:29:36;;;;;;;6.68;3.20;;;20.40;99.90;;;20.83;64.55;100584.50;5112640;28;20044;-75
2022/09/14 03:32:04;;;;;;;6.07;3.30;;;20.40;99.90;;;20.81;64.43;100583.72;5112958;28;20492;-75
2022/09/14 03:34:32;;;;;;;10.35;3.35;;;20.40;99.90;;;20.82;64.61;100580.09;5115779;28;20054;-75
2022/09/14 03:37:02;;;;;;;7.32;3.25;;;20.40;99.90;;;20.81;64.75;100577.50;5116492;28;20048;-75
2022/09/14 03:39:30;;;;;;;5.93;2.83;;;20.40;99.90;;;20.84;64.52;100577.31;5116708;28;20043;-75
2022/09/14 03:41:58;;;;;;;4.95;3.22;;;20.40;99.90;;;20.86;64.28;100580.81;5116607;28;20515;-75
2022/09/14 03:44:27;;;;;;;8.30;3.20;;;20.40;99.90;;;20.85;64.42;100577.25;5115220;28;20048;-75
2022/09/14 03:46:55;;;;;;;5.78;3.38;;;20.40;99.90;;;20.74;64.42;100576.94;5116328;28;20096;-75
2022/09/14 03:49:23;;;;;;;6.00;3.13;;;20.30;99.90;;;20.76;64.58;100579.53;5116031;28;20048;-75
2022/09/14 03:51:51;;;;;;;6.00;2.83;;;20.30;99.90;;;20.75;64.18;100572.44;5116414;28;20035;-75
2022/09/14 03:54:27;;;;;;;6.90;3.53;;;20.40;99.90;;;20.66;64.17;100582.69;5116692;28;20044;-75
2022/09/14 03:56:56;;;;;;;7.22;3.67;;;20.30;99.90;;;20.76;64.17;100583.09;5116172;28;20051;-75
2022/09/14 03:59:24;;;;;;;7.03;3.30;;;20.30;99.90;;;20.43;64.33;100585.66;5116102;28;20040;-75
2022/09/14 04:01:52;;;;;;;6.97;3.17;;;20.10;99.90;;;20.47;64.07;100583.69;5116075;28;20497;-75
2022/09/14 04:04:21;;;;;;;7.22;3.15;;;20.10;99.90;;;20.33;64.33;100587.03;5116131;28;20544;-75
2022/09/14 04:06:49;;;;;;;6.20;3.40;;;19.90;99.90;;;20.15;64.91;100593.25;5115979;28;20036;-75
2022/09/14 04:09:18;;;;;;;5.88;3.20;;;19.80;99.90;;;20.15;65.68;100595.09;5116297;28;20053;-75
2022/09/14 04:11:47;;;;;;;7.82;3.25;;;19.70;99.90;;;20.20;65.54;100591.28;5116479;28;20054;-75
2022/09/14 04:14:16;;;;;;;12.43;3.72;;;19.70;99.90;;;19.99;65.59;100596.78;5116753;28;20078;-75
2022/09/14 04:16:45;;;;;;;5.75;3.05;;;19.60;99.90;;;19.45;67.84;100601.03;5115823;28;20059;-75
2022/09/14 04:19:13;;;;;;;5.03;2.90;;;19.10;99.90;;;19.39;68.75;100595.09;5115894;28;20040;-75
2022/09/14 04:21:41;;;;;;;5.97;3.15;;;18.90;99.90;;;19.53;68.09;100606.94;5115550;28;20048;-74
2022/09/14 04:24:12;;;;;;;6.82;3.53;;;19.00;99.90;;;18.97;68.52;100538.81;5115323;28;20050;-75
2022/09/14 04:26:44;;;;;;;4.88;2.88;;;18.80;99.90;;;19.05;70.32;100594.81;5115455;28;20043;-75
2022/09/14 04:29:14;;;;;;;14.15;3.45;;;18.60;99.90;;;18.91;71.04;100593.56;5114651;28;20048;-74
2022/09/14 04:31:43;;;;;;;;;;;18.40;99.90;;;19.21;70.15;100594.06;5115811;28;20050;-74
2022/09/14 04:34:13;;;;;;;6.07;2.95;;;18.70;99.90;;;19.27;69.57;100590.25;5115504;28;19924;-75
2022/09/14 04:36:42;;;;;;;8.40;3.58;;;18.80;99.90;;;19.33;69.36;100595.38;5115623;28;20412;-75
2022/09/14 04:39:14;;;;;;;7.05;2.92;;;18.80;99.90;;;19.09;70.25;100583.00;5115516;28;20404;-75
2022/09/14 04:41:42;;;;;;;8.25;3.22;;;18.60;99.90;;;18.45;71.34;100556.28;5115517;28;20122;-75
2022/09/14 04:44:10;;;;;;;6.60;3.00;;;18.30;99.90;;;18.44;73.12;100575.97;5114885;28;20036;-75
2022/09/14 04:46:41;;;;;;;6.32;3.22;;;18.00;99.90;;;18.38;73.29;100560.13;5115372;28;20050;-75
2022/09/14 04:49:15;;;;;;;7.85;3.72;;;17.90;99.90;;;18.70;72.72;100570.38;5115228;28;20097;-74
2022/09/14 04:51:43;;;;;;;4.50;3.53;;;18.10;99.90;;;18.77;72.23;100566.53;5115579;28;20044;-75
2022/09/14 04:54:15;;;;;;;8.90;3.60;;;18.40;99.90;;;18.97;71.64;100552.22;5115283;28;20043;-75
2022/09/14 04:56:44;;;;;;;6.10;3.20;;;18.60;99.90;;;19.28;71.41;100568.72;5115367;27;20050;-76
2022/09/14 04:59:14;;;;;;;6.22;3.78;;;18.80;99.90;;;19.24;70.93;100548.31;5115013;28;20048;-75
2022/09/14 05:01:47;;;;;;;7.28;3.70;;;18.90;99.90;;;19.03;70.88;100551.97;5115102;28;20046;-75
2022/09/14 05:04:16;;;;;;;8.43;3.53;;;18.80;99.90;;;19.09;71.42;100567.78;5115383;28;20047;-75
2022/09/14 05:06:44;;;;;;;6.78;3.63;;;18.80;99.90;;;19.03;71.75;100560.00;5114905;28;20112;-75
2022/09/14 05:09:15;;;;;;;6.80;3.38;;;18.60;99.90;;;18.92;72.86;100563.19;5114597;27;20441;-75
2022/09/14 05:11:44;;;;;;;8.05;3.55;;;18.40;99.90;;;18.76;73.32;100566.56;5114576;28;20476;-74
2022/09/14 05:14:13;;;;;;;8.20;3.45;;;18.30;99.90;;;18.75;73.42;100563.03;5114947;28;20114;-75
2022/09/14 05:16:44;;;;;;;11.15;4.05;;;18.20;99.90;;;18.99;73.18;100563.75;5114659;28;20043;-75
2022/09/14 05:19:16;;;;;;;5.63;3.33;;;18.40;99.90;;;19.06;72.31;100550.97;5115261;28;20040;-75
2022/09/14 05:21:45;;;;;;;9.02;3.88;;;18.60;99.90;;;19.34;71.55;100560.41;5114996;28;20123;-75
2022/09/14 05:24:16;;;;;;;6.38;3.45;;;18.80;99.90;;;19.45;71.47;100557.28;5114862;28;20044;-75
2022/09/14 05:26:46;;;;;;;5.35;3.22;;;19.00;99.90;;;19.50;71.19;100560.59;5114710;28;20048;-75
2022/09/14 05:29:19;;;;;;;9.20;3.47;;;19.10;99.90;;;19.61;70.34;100564.53;5114578;28;20135;-75
2022/09/14 05:31:49;;;;;;;10.80;3.53;;;19.10;99.90;;;19.69;70.48;100573.09;5114880;28;20050;-74
2022/09/14 05:34:17;;;;;;;4.90;3.03;;;19.20;99.90;;;19.75;70.41;100561.19;5114760;28;20040;-74
2022/09/14 05:36:46;;;;;;;6.60;3.38;;;19.30;99.90;;;19.86;69.99;100566.09;5114970;28;20047;-76
2022/09/14 05:39:14;;;;;;;5.43;3.20;;;19.40;99.90;;;19.74;69.73;100575.59;5114316;28;20046;-76
2022/09/14 05:41:49;;;;;;;7.25;3.38;;;19.30;99.90;;;19.50;70.26;100574.91;5114574;28;20070;-75
2022/09/14 05:44:17;;;;;;;8.13;3.53;;;19.10;99.90;;;19.15;71.10;100572.88;5114519;28;20040;-76
2022/09/14 05:46:45;;;;;;;8.48;3.50;;;18.80;99.90;;;18.71;72.53;100571.25;5114710;28;20128;-75
2022/09/14 05:49:15;;;;;;;9.43;3.63;;;18.30;99.90;;;18.64;73.73;100570.63;5114148;27;20452;-75
2022/09/14 05:51:43;;;;;;;7.93;3.25;;;18.10;99.90;;;18.77;73.76;100569.19;5114329;28;20054;-75
2022/09/14 05:54:12;;;;;;;11.57;4.45;;;18.20;99.90;;;18.76;73.03;100569.25;5114503;28;20081;-76
2022/09/14 05:56:40;;;;;;;8.35;3.40;;;18.20;99.90;;;18.71;73.52;100563.22;5113353;28;20039;-75
2022/09/14 05:59:09;;;;;;;8.68;3.50;;;18.20;99.90;;;18.50;74.96;100548.94;5114186;28;20426;-75
2022/09/14 06:01:37;;;;;;;6.05;3.35;;;18.00;99.90;;;18.32;75.17;100559.47;5114302;28;20126;-75
2022/09/14 06:04:06;;;;;;;8.57;3.95;;;17.80;99.90;;;18.28;75.59;100553.38;5113819;28;20494;-75
2022/09/14 06:06:35;;;;;;;8.30;4.20;;;17.80;99.90;;;18.16;76.43;100558.34;5113952;28;20047;-75
2022/09/14 06:09:04;;;;;;;7.53;3.72;;;17.70;99.90;;;18.17;76.32;100561.00;5114157;28;20054;-74
2022/09/14 06:11:36;;;;;;;6.43;3.78;;;17.60;99.90;;;18.12;75.90;100530.84;5113888;28;20043;-75
2022/09/14 06:14:05;;;;;;;8.80;3.88;;;17.80;99.90;;;18.01;75.74;100546.47;5113654;28;20050;-75
2022/09/14 06:16:34;;;;;;;12.98;4.05;;;17.70;99.90;;;17.92;75.62;100553.03;5113816;28;20047;-74
2022/09/14 06:19:03;;;;;;;8.20;3.33;;;17.60;99.90;;;17.81;76.57;100536.53;5113516;28;20054;-74
2022/09/14 06:21:34;;;;;;;8.18;3.42;;;17.40;99.90;;;17.87;76.17;100538.97;5113738;28;20093;-75
2022/09/14 06:24:04;;;;;;;9.43;3.97;;;17.40;99.90;;;17.73;75.74;100545.81;5113660;28;20548;-75
2022/09/14 06:26:32;;;;;;;7.72;3.83;;;17.40;99.90;;;17.82;75.87;100537.44;5112363;28;20051;-74
2022/09/14 06:29:00;;;;;;;7.97;3.50;;;17.40;99.90;;;17.92;75.98;100534.31;5113667;28;20043;-75
2022/09/14 06:31:29;;;;;;;11.80;3.80;;;17.50;99.90;;;17.95;75.73;100533.31;5113333;28;20036;-75
2022/09/14 06:33:57;;;;;;;7.63;3.85;;;17.60;99.90;;;18.20;74.95;100542.13;5113237;28;20057;-75
2022/09/14 06:36:28;;;;;;;6.03;3.60;;;17.80;99.90;;;18.04;75.82;100532.94;5113494;28;20047;-74
2022/09/14 06:39:00;;;;;;;17.38;4.22;;;17.70;99.90;;;17.94;75.92;100532.44;5113554;28;20044;-74
2022/09/14 06:41:31;;;;;;;10.00;4.18;;;17.60;99.90;;;17.99;76.95;100526.91;5113287;28;20040;-75
2022/09/14 06:44:01;;;;;;;11.15;4.05;;;17.60;99.90;;;17.96;77.00;100533.25;5113821;28;20054;-75
2022/09/14 06:46:31;;;;;;;8.38;3.90;;;17.50;99.90;;;18.24;76.14;100545.53;5112521;28;20058;-74
2022/09/14 06:49:04;;;;;;;10.20;3.78;;;17.80;99.90;;;18.36;75.21;100545.91;5113324;28;20058;-73
2022/09/14 06:51:35;;;;;;;7.80;3.78;;;17.90;99.90;;;18.50;74.64;100548.94;5113307;28;20044;-75
2022/09/14 06:54:06;;;;;;;11.70;3.95;;;18.00;99.90;;;18.57;74.48;100542.38;5113154;28;20048;-75
2022/09/14 06:56:37;;;;;;;10.55;4.28;;;18.10;99.90;;;18.52;73.91;100539.03;5113539;28;20040;-75
2022/09/14 06:59:06;;;;;;;;;;;18.20;99.90;;;18.32;74.82;100541.63;5113875;28;20051;-74
2022/09/14 07:01:35;;;;;;;6.60;3.60;;;17.90;99.90;;;18.51;74.47;100539.06;5113173;28;19927;-75
2022/09/14 07:04:05;;;;;;;9.40;4.05;;;18.10;99.90;;;18.74;73.98;100542.50;5113668;28;20031;-75
2022/09/14 07:06:44;;;;;;;10.03;4.53;;;18.20;99.90;;;18.71;73.26;100539.97;5113223;28;20040;-75
2022/09/14 07:09:14;;;;;;;9.68;4.28;;;18.30;99.90;;;18.09;74.51;100498.84;5115103;28;20522;-75
2022/09/14 07:11:43;;;;;;;10.32;3.90;;;18.00;99.90;;;18.40;75.53;100522.56;5117134;28;20048;-75
2022/09/14 07:14:12;;;;;;;10.15;4.25;;;17.90;99.90;;;18.49;75.10;100533.78;5117471;28;20062;-75
2022/09/14 07:16:41;;;;;;;12.27;4.03;;;18.00;99.90;;;18.36;75.39;100524.50;5115743;28;20484;-75
2022/09/14 07:19:14;;;;;;;9.23;4.53;;;17.90;99.90;;;18.46;75.65;100528.56;5116740;28;20097;-75
2022/09/14 07:21:43;;;;;;;9.88;4.30;;;18.00;99.90;;;18.13;76.17;100524.56;5115620;28;20044;-75
2022/09/14 07:24:14;;;;;;;9.88;4.07;;;17.80;99.90;;;17.91;76.10;100523.69;5115470;28;20488;-75
2022/09/14 07:26:43;;;;;;;7.93;3.83;;;17.60;99.90;;;18.27;75.48;100530.25;5116552;28;20442;-75
2022/09/14 07:29:15;;;;;;;12.65;4.13;;;17.80;99.90;;;18.57;74.76;100531.66;5116515;28;20047;-75
2022/09/14 07:31:46;;;;;;;9.88;4.00;;;18.10;99.90;;;18.82;74.50;100545.75;5117312;28;20401;-74
2022/09/14 07:34:15;;;;;;;7.55;3.75;;;18.30;99.90;;;19.00;73.70;100548.56;5115868;28;20055;-74
2022/09/14 07:36:44;;;;;;;13.48;4.70;;;18.50;99.90;;;19.17;72.97;100548.66;5117249;28;20040;-74
2022/09/14 07:39:17;;;;;;;9.75;4.13;;;18.70;99.90;;;19.19;71.32;100549.47;5116472;28;20043;-74
2022/09/14 07:41:46;;;;;;;13.65;4.60;;;18.80;99.90;;;18.99;70.37;100542.31;5116600;28;20036;-74
2022/09/14 07:44:17;;;;;;;11.75;4.43;;;18.80;99.90;;;19.10;70.42;100541.84;5116201;28;20032;-75
2022/09/14 07:46:46;;;;;;;11.52;4.50;;;18.80;99.90;;;19.16;70.47;100536.22;5116015;28;20046;-74
2022/09/14 07:49:16;;;;;;;10.38;4.63;;;18.70;99.90;;;18.76;70.15;100444.16;5115858;28;20067;-75
2022/09/14 07:51:45;;;;;;;11.13;4.20;;;18.90;99.90;;;19.44;69.77;100534.03;5116650;28;20589;-74
2022/09/14 07:54:17;;;;;;;8.90;3.85;;;19.00;99.90;;;19.22;69.01;100541.31;5116507;28;20047;-75
2022/09/14 07:56:46;;;;;;;9.18;3.70;;;18.90;99.90;;;19.26;69.03;100548.28;5115972;28;20049;-74
2022/09/14 07:59:15;;;;;;;9.05;4.20;;;18.90;99.90;;;19.13;69.37;100549.75;5116117;28;20408;-76
2022/09/14 08:02:06;;;;;;;11.13;4.18;;;18.80;99.90;;;19.11;70.44;100548.94;5116329;28;20040;-75
2022/09/14 08:04:35;;;;;;;9.35;3.95;;;18.70;99.90;;;19.07;70.10;100541.97;5116405;28;20081;-74
2022/09/14 08:07:04;;;;;;;5.68;3.75;;;18.60;99.90;;;18.85;70.59;100542.06;5115836;28;20083;-75
2022/09/14 08:09:33;;;;;;;6.20;3.20;;;18.50;99.90;;;18.86;70.03;100533.94;5116217;28;20040;-74
2022/09/14 08:12:04;;;;;;;8.65;3.80;;;18.50;99.90;;;18.78;70.29;100535.22;5116571;28;20047;-74
2022/09/14 08:14:33;;;;;;;8.20;3.30;;;18.40;99.90;;;18.73;70.86;100529.19;5116348;28;20083;-74
2022/09/14 08:17:01;;;;;;;7.70;3.38;;;18.30;99.90;;;18.50;72.32;100527.50;5115701;28;20113;-74
2022/09/14 08:19:29;;;;;;;7.97;3.63;;;18.10;99.90;;;18.64;71.42;100530.44;5115526;28;20047;-74
2022/09/14 08:21:57;;;;;;;7.40;3.90;;;18.30;99.90;;;17.99;73.32;100522.44;5115822;28;20043;-74
2022/09/14 08:24:26;;;;;;;6.63;3.70;;;17.70;99.90;;;18.34;73.65;100523.69;5116170;28;20158;-74
2022/09/14 08:26:55;;;;;;;7.97;3.28;;;17.80;99.90;;;18.66;73.29;100533.09;5115761;28;20055;-75
2022/09/14 08:29:23;;;;;;;10.50;4.15;;;18.10;99.90;;;18.60;73.18;100531.50;5115919;28;20073;-75
2022/09/14 08:31:52;;;;;;;8.25;3.70;;;18.20;99.90;;;18.12;73.54;100520.13;5115342;28;20479;-75
2022/09/14 08:34:20;;;;;;;6.82;3.42;;;17.90;99.90;;;18.22;74.01;100526.84;5116282;28;20131;-75
2022/09/14 08:36:49;;;;;;;6.55;3.35;;;17.80;99.90;;;18.41;73.77;100525.16;5115742;28;20069;-75
2022/09/14 08:39:18;;;;;;;8.25;3.80;;;17.90;99.90;;;18.47;74.68;100532.09;5115847;28;20112;-75
2022/09/14 08:41:59;;;;;;;10.98;4.03;;;18.00;99.90;;;18.68;73.41;100537.41;5115487;28;20055;-74
2022/09/14 08:44:31;;;;;;;7.63;3.67;;;18.20;99.90;;;18.58;74.14;100540.56;5115483;28;20047;-75
2022/09/14 08:47:02;;;;;;;6.93;3.78;;;18.10;99.90;;;18.42;75.10;100531.38;5115486;28;20043;-74
2022/09/14 08:49:45;;;;;;;8.63;4.00;;;18.00;99.90;;;18.23;75.46;100501.84;5115554;28;20052;-75
2022/09/14 08:52:23;;;;;;;9.25;3.55;;;17.90;99.90;;;18.58;73.57;100528.03;5115605;28;20082;-74
2022/09/14 08:54:55;;;;;;;6.40;3.58;;;18.10;99.90;;;18.23;73.89;100517.91;5115348;28;20052;-74
2022/09/14 08:57:33;;;;;;;6.72;3.78;;;17.90;99.90;;;18.11;75.11;100496.09;5115474;28;20506;-75
2022/09/14 09:00:10;;;;;;;9.75;3.80;;;17.80;99.90;;;18.36;74.48;100523.59;5115484;28;20055;-75
2022/09/14 09:03:20;;;;;;;9.13;3.90;;;17.90;99.90;;;18.34;73.90;100517.44;5115481;28;20051;-75
2022/09/14 09:05:55;;;;;;;7.20;3.42;;;17.90;99.90;;;18.47;73.54;100524.06;5115260;28;20047;-75
2022/09/14 09:08:38;;;;;;;11.63;4.15;;;18.10;99.90;;;18.41;72.84;100524.28;5114793;28;20043;-74
2022/09/14 09:11:14;;;;;;;15.20;4.53;;;18.10;99.90;;;18.10;74.26;100524.66;5115437;28;20431;-74
2022/09/14 09:13:45;;;;;;;7.75;3.83;;;17.80;99.90;;;18.28;74.33;100526.59;5115157;28;20048;-74
2022/09/14 09:16:21;;;;;;;9.05;4.70;;;17.80;99.90;;;18.53;73.42;100529.16;5115068;28;20039;-74
2022/09/14 09:18:53;;;;;;;9.18;4.00;;;18.00;99.90;;;18.83;72.46;100539.44;5115184;28;20090;-75
2022/09/14 09:21:27;;;;;;;8.27;3.83;;;18.30;99.90;;;18.77;72.59;100538.84;5114996;28;20437;-74
2022/09/14 09:23:56;;;;;;;12.68;4.78;;;18.40;99.90;;;18.72;72.44;100522.94;5114963;28;20087;-74
2022/09/14 09:26:30;;;;;;;10.98;4.50;;;18.40;99.90;;;18.61;73.01;100527.03;5114552;28;20105;-74
2022/09/14 09:29:04;;;;;;;10.30;4.70;;;18.30;99.90;;;18.48;74.30;100524.00;5114601;28;20393;-74
2022/09/14 09:31:55;;;;;;;8.98;4.53;;;18.10;99.90;;;18.22;73.49;100469.75;5113619;28;20181;-75
2022/09/14 09:34:41;;;;;;;;;;;18.10;99.90;;;18.80;73.12;100518.13;5114765;28;20184;-74
2022/09/14 09:37:22;;;;;;;11.23;5.22;;;18.30;99.90;;;19.09;73.00;100514.16;5113301;28;19925;-74
2022/09/14 09:39:52;;;;;;;13.52;6.03;;;18.60;99.90;;;19.31;72.41;100514.06;5113209;28;20043;-75
2022/09/14 09:42:23;;;;;;;9.82;5.03;;;18.80;99.90;;;19.40;71.30;100514.53;5114254;28;20092;-75
2022/09/14 09:44:59;;;;;;;11.50;4.60;;;19.00;99.90;;;19.41;70.34;100496.66;5114649;28;20044;-75
2022/09/14 09:47:34;;;;;;;13.50;5.57;;;19.10;99.90;;;19.60;69.58;100517.19;5114139;28;20503;-74
2022/09/14 09:50:07;;;;;;;11.27;4.72;;;19.20;99.90;;;19.50;68.78;100517.66;5113843;28;20184;-75
2022/09/14 09:52:35;;;;;;;14.10;5.18;;;19.10;99.90;;;19.28;68.74;100519.59;5113883;28;20139;-75
2022/09/14 09:55:06;;;;;;;12.98;4.80;;;19.10;99.90;;;19.49;70.14;100515.94;5113970;28;20040;-75
2022/09/14 09:57:37;;;;;;;10.25;4.93;;;19.00;99.90;;;19.61;69.85;100534.13;5114360;28;20055;-75
2022/09/14 10:00:20;;;;;;;10.40;4.80;;;19.20;99.90;;;19.82;68.70;100519.72;5114091;28;20055;-74
2022/09/14 10:02:50;;;;;;;10.05;5.30;;;19.40;99.90;;;19.98;68.53;100523.38;5114777;28;20044;-75
2022/09/14 10:05:27;;;;;;;9.30;4.68;;;19.50;99.90;;;20.05;68.24;100522.16;5113942;28;20044;-75
2022/09/14 10:07:59;;;;;;;11.18;4.82;;;19.70;99.90;;;20.06;67.26;100528.38;5113652;28;20040;-74
2022/09/14 10:10:43;;;;;;;16.85;4.90;;;19.70;99.90;;;18.92;69.45;100530.13;5113911;28;20039;-75
2022/09/14 10:13:23;;;;;;;11.27;4.15;;;18.80;99.90;;;19.19;68.65;100522.66;5112976;28;20044;-74
2022/09/14 10:15:52;;;;;;;12.43;4.18;;;18.80;99.90;;;19.38;68.52;100526.28;5112303;28;20043;-74
2022/09/14 10:18:23;;;;;;;8.57;3.65;;;19.00;99.90;;;19.12;68.47;100531.94;5113317;28;20048;-74
2022/09/14 10:21:09;;;;;;;8.80;4.07;;;18.80;99.90;;;18.74;70.37;100526.44;5113529;28;20042;-75
2022/09/14 10:23:39;;;;;;;8.70;4.50;;;18.40;99.90;;;18.29;72.24;100506.91;5113502;28;20127;-74
2022/09/14 10:26:27;;;;;;;10.25;4.57;;;18.00;99.90;;;18.50;71.64;100522.16;5113703;28;20470;-73
2022/09/14 10:29:25;;;;;;;10.75;4.63;;;18.10;99.90;;;18.52;72.25;100514.91;5113127;28;20046;-75
2022/09/14 10:32:03;;;;;;;9.18;4.18;;;18.00;99.90;;;18.45;72.78;100508.06;5113645;28;20044;-75
2022/09/14 10:34:32;;;;;;;7.72;5.25;;;18.00;99.90;;;18.55;73.55;100513.91;5113444;28;20047;-75